sensor_id;sensor_type;location;lat;lon;timestamp;temperature;humidity
15184;DHT22;7693;49.266;7.104;2023-04-28T00:01:31;13.40;99.30
15184;DHT22;7693;49.266;7.104;2023-04-28T00:03:56;13.40;99.50
15184;DHT22;7693;49.266;7.104;2023-04-28T00:06:22;13.40;99.70
15184;DHT22;7693;49.266;7.104;2023-04-28T00:08:48;13.40;99.70
15184;DHT22;7693;49.266;7.104;2023-04-28T00:11:14;13.30;99.80
15184;DHT22;7693;49.266;7.104;2023-04-28T00:13:39;13.30;99.90
15184;DHT22;7693;49.266;7.104;2023-04-28T00:16:05;13.30;99.90
15184;DHT22;7693;49.266;7.104;2023-04-28T00:18:34;13.20;99.90
15184;DHT22;7693;49.266;7.104;2023-04-28T00:20:59;13.20;99.90
15184;DHT22;7693;49.266;7.104;2023-04-28T00:23:26;13.20;99.90
15184;DHT22;7693;49.266;7.104;2023-04-28T00:25:52;13.20;99.90
15184;DHT22;7693;49.266;7.104;2023-04-28T00:28:18;13.20;99.90
15184;DHT22;7693;49.266;7.104;2023-04-28T00:30:44;13.20;99.90
15184;DHT22;7693;49.266;7.104;2023-04-28T00:33:09;13.10;99.90
15184;DHT22;7693;49.266;7.104;2023-04-28T00:35:35;13.10;99.90
15184;DHT22;7693;49.266;7.104;2023-04-28T00:38:00;13.10;99.90
15184;DHT22;7693;49.266;7.104;2023-04-28T00:40:33;13.20;99.90
15184;DHT22;7693;49.266;7.104;2023-04-28T00:42:59;13.20;99.90
15184;DHT22;7693;49.266;7.104;2023-04-28T00:45:24;13.10;99.90
15184;DHT22;7693;49.266;7.104;2023-04-28T00:47:50;13.10;99.90
15184;DHT22;7693;49.266;7.104;2023-04-28T00:50:15;13.10;99.90
15184;DHT22;7693;49.266;7.104;2023-04-28T00:52:42;13.10;99.90
15184;DHT22;7693;49.266;7.104;2023-04-28T00:55:08;13.10;99.90
15184;DHT22;7693;49.266;7.104;2023-04-28T00:57:35;13.10;99.90
15184;DHT22;7693;49.266;7.104;2023-04-28T01:00:01;13.00;99.90
15184;DHT22;7693;49.266;7.104;2023-04-28T01:02:30;13.00;99.90
15184;DHT22;7693;49.266;7.104;2023-04-28T01:04:59;12.90;99.90
15184;DHT22;7693;49.266;7.104;2023-04-28T01:07:25;12.90;99.90
15184;DHT22;7693;49.266;7.104;2023-04-28T01:09:51;12.90;99.90
15184;DHT22;7693;49.266;7.104;2023-04-28T01:12:17;12.90;99.90
15184;DHT22;7693;49.266;7.104;2023-04-28T01:14:42;12.90;99.90
15184;DHT22;7693;49.266;7.104;2023-04-28T01:17:09;12.90;99.90
15184;DHT22;7693;49.266;7.104;2023-04-28T01:19:35;12.90;99.90
15184;DHT22;7693;49.266;7.104;2023-04-28T01:22:00;12.90;99.90
15184;DHT22;7693;49.266;7.104;2023-04-28T01:24:26;12.90;99.90
15184;DHT22;7693;49.266;7.104;2023-04-28T01:26:51;12.80;99.90
15184;DHT22;7693;49.266;7.104;2023-04-28T01:29:17;12.80;99.90
15184;DHT22;7693;49.266;7.104;2023-04-28T01:31:42;12.80;99.90
15184;DHT22;7693;49.266;7.104;2023-04-28T01:34:08;12.70;99.90
15184;DHT22;7693;49.266;7.104;2023-04-28T01:36:34;12.70;99.90
15184;DHT22;7693;49.266;7.104;2023-04-28T01:38:59;12.70;99.90
15184;DHT22;7693;49.266;7.104;2023-04-28T01:41:25;12.70;99.90
15184;DHT22;7693;49.266;7.104;2023-04-28T01:43:50;12.70;99.90
15184;DHT22;7693;49.266;7.104;2023-04-28T01:46:16;12.70;99.90
15184;DHT22;7693;49.266;7.104;2023-04-28T01:48:42;12.70;99.90
15184;DHT22;7693;49.266;7.104;2023-04-28T01:51:07;12.60;99.90
15184;DHT22;7693;49.266;7.104;2023-04-28T01:53:33;12.60;99.90
15184;DHT22;7693;49.266;7.104;2023-04-28T01:55:58;12.60;99.90
15184;DHT22;7693;49.266;7.104;2023-04-28T01:58:24;12.60;99.90
15184;DHT22;7693;49.266;7.104;2023-04-28T02:00:50;12.60;99.90
15184;DHT22;7693;49.266;7.104;2023-04-28T02:03:15;12.60;99.90
15184;DHT22;7693;49.266;7.104;2023-04-28T02:05:41;12.60;99.90
15184;DHT22;7693;49.266;7.104;2023-04-28T02:08:06;12.60;99.90
15184;DHT22;7693;49.266;7.104;2023-04-28T02:10:32;12.60;99.90
15184;DHT22;7693;49.266;7.104;2023-04-28T02:12:58;12.70;99.90
15184;DHT22;7693;49.266;7.104;2023-04-28T02:15:23;12.70;99.90
15184;DHT22;7693;49.266;7.104;2023-04-28T02:17:49;12.60;99.90
15184;DHT22;7693;49.266;7.104;2023-04-28T02:20:14;12.60;99.90
15184;DHT22;7693;49.266;7.104;2023-04-28T02:22:43;12.60;99.90
15184;DHT22;7693;49.266;7.104;2023-04-28T02:25:08;12.60;99.90
15184;DHT22;7693;49.266;7.104;2023-04-28T02:27:35;12.60;99.90
15184;DHT22;7693;49.266;7.104;2023-04-28T02:30:06;12.60;99.90
15184;DHT22;7693;49.266;7.104;2023-04-28T02:32:32;12.60;99.90
15184;DHT22;7693;49.266;7.104;2023-04-28T02:34:58;12.60;99.90
15184;DHT22;7693;49.266;7.104;2023-04-28T02:37:24;12.60;99.90
15184;DHT22;7693;49.266;7.104;2023-04-28T02:39:49;12.60;99.90
15184;DHT22;7693;49.266;7.104;2023-04-28T02:42:15;12.60;99.90
15184;DHT22;7693;49.266;7.104;2023-04-28T02:44:41;12.60;99.90
15184;DHT22;7693;49.266;7.104;2023-04-28T02:47:06;12.50;99.90
15184;DHT22;7693;49.266;7.104;2023-04-28T02:49:32;12.50;99.90
15184;DHT22;7693;49.266;7.104;2023-04-28T02:51:57;12.50;99.90
15184;DHT22;7693;49.266;7.104;2023-04-28T02:54:23;12.40;99.90
15184;DHT22;7693;49.266;7.104;2023-04-28T02:56:56;12.40;99.90
15184;DHT22;7693;49.266;7.104;2023-04-28T02:59:22;12.30;99.90
15184;DHT22;7693;49.266;7.104;2023-04-28T03:01:48;12.30;99.90
15184;DHT22;7693;49.266;7.104;2023-04-28T03:04:15;12.30;99.90
15184;DHT22;7693;49.266;7.104;2023-04-28T03:06:41;12.30;99.90
15184;DHT22;7693;49.266;7.104;2023-04-28T03:09:07;12.30;99.90
15184;DHT22;7693;49.266;7.104;2023-04-28T03:11:32;12.40;99.90
15184;DHT22;7693;49.266;7.104;2023-04-28T03:13:58;12.30;99.90
15184;DHT22;7693;49.266;7.104;2023-04-28T03:16:23;12.30;99.90
15184;DHT22;7693;49.266;7.104;2023-04-28T03:18:49;12.30;99.90
15184;DHT22;7693;49.266;7.104;2023-04-28T03:21:15;12.30;99.90
15184;DHT22;7693;49.266;7.104;2023-04-28T03:23:40;12.30;99.90
15184;DHT22;7693;49.266;7.104;2023-04-28T03:26:06;12.30;99.90
15184;DHT22;7693;49.266;7.104;2023-04-28T03:28:31;12.30;99.90
15184;DHT22;7693;49.266;7.104;2023-04-28T03:30:57;12.30;99.90
15184;DHT22;7693;49.266;7.104;2023-04-28T03:33:23;12.30;99.90
15184;DHT22;7693;49.266;7.104;2023-04-28T03:35:48;12.30;99.90
15184;DHT22;7693;49.266;7.104;2023-04-28T03:38:14;12.30;99.90
15184;DHT22;7693;49.266;7.104;2023-04-28T03:40:40;12.30;99.90
15184;DHT22;7693;49.266;7.104;2023-04-28T03:43:05;12.30;99.90
15184;DHT22;7693;49.266;7.104;2023-04-28T03:45:31;12.30;99.90
15184;DHT22;7693;49.266;7.104;2023-04-28T03:47:57;12.30;99.90
15184;DHT22;7693;49.266;7.104;2023-04-28T03:50:23;12.30;99.90
15184;DHT22;7693;49.266;7.104;2023-04-28T03:52:48;12.30;99.90
15184;DHT22;7693;49.266;7.104;2023-04-28T03:55:14;12.30;99.90
15184;DHT22;7693;49.266;7.104;2023-04-28T03:57:39;12.20;99.90
15184;DHT22;7693;49.266;7.104;2023-04-28T04:00:06;12.20;99.90
15184;DHT22;7693;49.266;7.104;2023-04-28T04:02:32;12.30;99.90
15184;DHT22;7693;49.266;7.104;2023-04-28T04:04:57;12.30;99.90
15184;DHT22;7693;49.266;7.104;2023-04-28T04:07:23;12.30;99.90
15184;DHT22;7693;49.266;7.104;2023-04-28T04:09:49;12.20;99.90
15184;DHT22;7693;49.266;7.104;2023-04-28T04:12:14;12.30;99.90
15184;DHT22;7693;49.266;7.104;2023-04-28T04:14:40;12.20;99.90
15184;DHT22;7693;49.266;7.104;2023-04-28T04:17:05;12.20;99.90
15184;DHT22;7693;49.266;7.104;2023-04-28T04:19:35;12.20;99.90
15184;DHT22;7693;49.266;7.104;2023-04-28T04:22:00;12.30;99.90
15184;DHT22;7693;49.266;7.104;2023-04-28T04:24:26;12.30;99.90
15184;DHT22;7693;49.266;7.104;2023-04-28T04:26:51;12.30;99.90
15184;DHT22;7693;49.266;7.104;2023-04-28T04:29:17;12.30;99.90
15184;DHT22;7693;49.266;7.104;2023-04-28T04:31:43;12.30;99.90
15184;DHT22;7693;49.266;7.104;2023-04-28T04:34:10;12.30;99.90
15184;DHT22;7693;49.266;7.104;2023-04-28T04:36:35;12.30;99.90
15184;DHT22;7693;49.266;7.104;2023-04-28T04:39:01;12.40;99.90
15184;DHT22;7693;49.266;7.104;2023-04-28T04:41:27;12.40;99.90
15184;DHT22;7693;49.266;7.104;2023-04-28T04:43:52;12.40;99.90
15184;DHT22;7693;49.266;7.104;2023-04-28T04:46:18;12.40;99.90
15184;DHT22;7693;49.266;7.104;2023-04-28T04:48:44;12.30;99.90
15184;DHT22;7693;49.266;7.104;2023-04-28T04:51:09;12.40;99.90
15184;DHT22;7693;49.266;7.104;2023-04-28T04:53:35;12.30;99.90
15184;DHT22;7693;49.266;7.104;2023-04-28T04:56:01;12.30;99.90
15184;DHT22;7693;49.266;7.104;2023-04-28T04:58:27;12.30;99.90
15184;DHT22;7693;49.266;7.104;2023-04-28T05:00:52;12.40;99.90
15184;DHT22;7693;49.266;7.104;2023-04-28T05:03:18;12.40;99.90
15184;DHT22;7693;49.266;7.104;2023-04-28T05:05:44;12.50;99.90
15184;DHT22;7693;49.266;7.104;2023-04-28T05:08:10;12.50;99.90
15184;DHT22;7693;49.266;7.104;2023-04-28T05:10:36;12.50;99.90
15184;DHT22;7693;49.266;7.104;2023-04-28T05:13:02;12.50;99.90
15184;DHT22;7693;49.266;7.104;2023-04-28T05:15:28;12.60;99.90
15184;DHT22;7693;49.266;7.104;2023-04-28T05:17:53;12.60;99.90
15184;DHT22;7693;49.266;7.104;2023-04-28T05:20:19;12.60;99.90
15184;DHT22;7693;49.266;7.104;2023-04-28T05:22:45;12.70;99.90
15184;DHT22;7693;49.266;7.104;2023-04-28T05:25:10;12.70;99.90
15184;DHT22;7693;49.266;7.104;2023-04-28T05:27:36;12.80;99.90
15184;DHT22;7693;49.266;7.104;2023-04-28T05:30:04;12.80;99.90
15184;DHT22;7693;49.266;7.104;2023-04-28T05:32:33;12.80;99.90
15184;DHT22;7693;49.266;7.104;2023-04-28T05:34:59;12.80;99.90
15184;DHT22;7693;49.266;7.104;2023-04-28T05:37:24;12.90;99.90
15184;DHT22;7693;49.266;7.104;2023-04-28T05:39:50;12.90;99.90
15184;DHT22;7693;49.266;7.104;2023-04-28T05:42:16;12.90;99.90
15184;DHT22;7693;49.266;7.104;2023-04-28T05:44:42;12.90;99.90
15184;DHT22;7693;49.266;7.104;2023-04-28T05:47:07;12.90;99.90
15184;DHT22;7693;49.266;7.104;2023-04-28T05:49:33;12.90;99.90
15184;DHT22;7693;49.266;7.104;2023-04-28T05:51:58;12.90;99.90
15184;DHT22;7693;49.266;7.104;2023-04-28T05:54:24;12.90;99.90
15184;DHT22;7693;49.266;7.104;2023-04-28T05:56:50;13.00;99.90
15184;DHT22;7693;49.266;7.104;2023-04-28T05:59:15;13.00;99.90
15184;DHT22;7693;49.266;7.104;2023-04-28T06:01:41;13.00;99.90
15184;DHT22;7693;49.266;7.104;2023-04-28T06:04:06;13.10;99.90
15184;DHT22;7693;49.266;7.104;2023-04-28T06:06:32;13.10;99.90
15184;DHT22;7693;49.266;7.104;2023-04-28T06:08:58;13.10;99.90
15184;DHT22;7693;49.266;7.104;2023-04-28T06:11:24;13.10;99.90
15184;DHT22;7693;49.266;7.104;2023-04-28T06:13:50;13.20;99.90
15184;DHT22;7693;49.266;7.104;2023-04-28T06:16:16;13.20;99.90
15184;DHT22;7693;49.266;7.104;2023-04-28T06:18:43;13.20;99.90
15184;DHT22;7693;49.266;7.104;2023-04-28T06:21:08;13.20;99.90
15184;DHT22;7693;49.266;7.104;2023-04-28T06:23:34;13.30;99.90
15184;DHT22;7693;49.266;7.104;2023-04-28T06:26:00;13.30;99.90
15184;DHT22;7693;49.266;7.104;2023-04-28T06:28:26;13.30;99.90
15184;DHT22;7693;49.266;7.104;2023-04-28T06:30:51;13.40;99.90
15184;DHT22;7693;49.266;7.104;2023-04-28T06:33:17;13.40;99.90
15184;DHT22;7693;49.266;7.104;2023-04-28T06:35:43;13.50;99.90
15184;DHT22;7693;49.266;7.104;2023-04-28T06:38:08;13.40;99.90
15184;DHT22;7693;49.266;7.104;2023-04-28T06:40:34;13.50;99.90
15184;DHT22;7693;49.266;7.104;2023-04-28T06:43:00;13.60;99.90
15184;DHT22;7693;49.266;7.104;2023-04-28T06:45:25;13.60;99.90
15184;DHT22;7693;49.266;7.104;2023-04-28T06:47:52;13.60;99.90
15184;DHT22;7693;49.266;7.104;2023-04-28T06:50:20;13.60;99.90
15184;DHT22;7693;49.266;7.104;2023-04-28T06:52:45;13.70;99.90
15184;DHT22;7693;49.266;7.104;2023-04-28T06:55:14;13.70;99.90
15184;DHT22;7693;49.266;7.104;2023-04-28T06:57:41;13.80;99.90
15184;DHT22;7693;49.266;7.104;2023-04-28T07:00:07;13.80;99.90
15184;DHT22;7693;49.266;7.104;2023-04-28T07:02:33;13.80;99.90
15184;DHT22;7693;49.266;7.104;2023-04-28T07:04:59;13.80;99.90
15184;DHT22;7693;49.266;7.104;2023-04-28T07:07:25;13.90;99.90
15184;DHT22;7693;49.266;7.104;2023-04-28T07:09:50;13.90;99.90
15184;DHT22;7693;49.266;7.104;2023-04-28T07:12:17;13.90;99.90
15184;DHT22;7693;49.266;7.104;2023-04-28T07:14:43;13.90;99.90
15184;DHT22;7693;49.266;7.104;2023-04-28T07:17:09;14.00;99.90
15184;DHT22;7693;49.266;7.104;2023-04-28T07:19:35;14.00;99.90
15184;DHT22;7693;49.266;7.104;2023-04-28T07:22:00;14.10;99.90
15184;DHT22;7693;49.266;7.104;2023-04-28T07:24:26;14.10;99.90
15184;DHT22;7693;49.266;7.104;2023-04-28T07:26:52;14.10;99.90
15184;DHT22;7693;49.266;7.104;2023-04-28T07:29:18;14.20;99.90
15184;DHT22;7693;49.266;7.104;2023-04-28T07:31:44;14.30;99.90
15184;DHT22;7693;49.266;7.104;2023-04-28T07:34:10;14.30;99.90
15184;DHT22;7693;49.266;7.104;2023-04-28T07:36:36;14.40;99.90
15184;DHT22;7693;49.266;7.104;2023-04-28T07:39:01;14.50;99.90
15184;DHT22;7693;49.266;7.104;2023-04-28T07:41:27;14.50;99.90
15184;DHT22;7693;49.266;7.104;2023-04-28T07:43:53;14.60;99.90
15184;DHT22;7693;49.266;7.104;2023-04-28T07:46:19;14.60;99.90
15184;DHT22;7693;49.266;7.104;2023-04-28T07:48:44;14.60;99.90
15184;DHT22;7693;49.266;7.104;2023-04-28T07:51:10;14.70;99.90
15184;DHT22;7693;49.266;7.104;2023-04-28T07:53:36;14.70;99.90
15184;DHT22;7693;49.266;7.104;2023-04-28T07:56:02;14.70;99.90
15184;DHT22;7693;49.266;7.104;2023-04-28T07:58:27;14.70;99.90
15184;DHT22;7693;49.266;7.104;2023-04-28T08:00:53;14.70;99.90
15184;DHT22;7693;49.266;7.104;2023-04-28T08:03:18;14.70;99.90
15184;DHT22;7693;49.266;7.104;2023-04-28T08:05:44;14.80;99.90
15184;DHT22;7693;49.266;7.104;2023-04-28T08:08:10;14.80;99.90
15184;DHT22;7693;49.266;7.104;2023-04-28T08:10:36;14.80;99.90
15184;DHT22;7693;49.266;7.104;2023-04-28T08:13:02;14.90;99.90
15184;DHT22;7693;49.266;7.104;2023-04-28T08:15:28;15.10;99.90
15184;DHT22;7693;49.266;7.104;2023-04-28T08:17:53;15.10;99.90
15184;DHT22;7693;49.266;7.104;2023-04-28T08:20:19;15.10;99.90
15184;DHT22;7693;49.266;7.104;2023-04-28T08:22:45;15.10;99.90
15184;DHT22;7693;49.266;7.104;2023-04-28T08:25:11;15.20;99.90
15184;DHT22;7693;49.266;7.104;2023-04-28T08:27:36;15.20;99.90
15184;DHT22;7693;49.266;7.104;2023-04-28T08:30:08;15.20;99.90
15184;DHT22;7693;49.266;7.104;2023-04-28T08:32:33;15.20;99.90
15184;DHT22;7693;49.266;7.104;2023-04-28T08:34:59;15.20;99.90
15184;DHT22;7693;49.266;7.104;2023-04-28T08:37:26;15.30;99.90
15184;DHT22;7693;49.266;7.104;2023-04-28T08:39:51;15.30;99.90
15184;DHT22;7693;49.266;7.104;2023-04-28T08:42:28;15.30;99.90
15184;DHT22;7693;49.266;7.104;2023-04-28T08:44:55;15.40;99.90
15184;DHT22;7693;49.266;7.104;2023-04-28T08:47:37;15.40;99.90
15184;DHT22;7693;49.266;7.104;2023-04-28T08:50:04;15.40;99.90
15184;DHT22;7693;49.266;7.104;2023-04-28T08:52:30;15.40;99.90
15184;DHT22;7693;49.266;7.104;2023-04-28T08:54:58;15.40;99.90
15184;DHT22;7693;49.266;7.104;2023-04-28T08:57:26;15.40;99.90
15184;DHT22;7693;49.266;7.104;2023-04-28T08:59:55;15.30;99.90
15184;DHT22;7693;49.266;7.104;2023-04-28T09:02:21;15.30;99.90
15184;DHT22;7693;49.266;7.104;2023-04-28T09:04:47;15.30;99.90
15184;DHT22;7693;49.266;7.104;2023-04-28T09:07:13;15.20;99.90
15184;DHT22;7693;49.266;7.104;2023-04-28T09:09:39;15.30;99.90
15184;DHT22;7693;49.266;7.104;2023-04-28T09:12:06;15.30;99.90
15184;DHT22;7693;49.266;7.104;2023-04-28T09:14:34;15.30;99.90
15184;DHT22;7693;49.266;7.104;2023-04-28T09:17:01;15.30;99.90
15184;DHT22;7693;49.266;7.104;2023-04-28T09:19:34;15.40;99.90
15184;DHT22;7693;49.266;7.104;2023-04-28T09:22:03;15.50;99.90
15184;DHT22;7693;49.266;7.104;2023-04-28T09:24:37;15.50;99.90
15184;DHT22;7693;49.266;7.104;2023-04-28T09:27:09;15.50;99.90
15184;DHT22;7693;49.266;7.104;2023-04-28T09:29:37;15.50;99.90
15184;DHT22;7693;49.266;7.104;2023-04-28T09:32:14;15.60;99.90
15184;DHT22;7693;49.266;7.104;2023-04-28T09:37:19;15.60;99.90
15184;DHT22;7693;49.266;7.104;2023-04-28T09:39:54;15.60;99.90
15184;DHT22;7693;49.266;7.104;2023-04-28T09:45:01;15.60;99.90
15184;DHT22;7693;49.266;7.104;2023-04-28T09:47:28;15.60;99.90
15184;DHT22;7693;49.266;7.104;2023-04-28T09:49:58;15.70;99.90
15184;DHT22;7693;49.266;7.104;2023-04-28T09:52:25;15.70;99.90
15184;DHT22;7693;49.266;7.104;2023-04-28T09:54:52;15.80;99.90
15184;DHT22;7693;49.266;7.104;2023-04-28T09:57:19;15.80;99.90
15184;DHT22;7693;49.266;7.104;2023-04-28T09:59:51;15.90;99.90
15184;DHT22;7693;49.266;7.104;2023-04-28T10:02:19;16.00;99.90
15184;DHT22;7693;49.266;7.104;2023-04-28T10:04:47;16.00;99.90
15184;DHT22;7693;49.266;7.104;2023-04-28T10:07:14;16.00;99.90
15184;DHT22;7693;49.266;7.104;2023-04-28T10:09:41;16.00;99.90
15184;DHT22;7693;49.266;7.104;2023-04-28T10:12:13;16.20;99.90
15184;DHT22;7693;49.266;7.104;2023-04-28T10:14:40;16.30;99.90
15184;DHT22;7693;49.266;7.104;2023-04-28T10:17:05;16.40;99.90
15184;DHT22;7693;49.266;7.104;2023-04-28T10:19:32;16.40;99.90
15184;DHT22;7693;49.266;7.104;2023-04-28T10:22:26;16.50;99.90
15184;DHT22;7693;49.266;7.104;2023-04-28T10:27:44;16.50;99.90
15184;DHT22;7693;49.266;7.104;2023-04-28T10:30:15;16.50;99.90
15184;DHT22;7693;49.266;7.104;2023-04-28T10:32:42;16.60;99.90
15184;DHT22;7693;49.266;7.104;2023-04-28T10:38:05;16.50;99.90
15184;DHT22;7693;49.266;7.104;2023-04-28T10:40:31;16.50;99.90
15184;DHT22;7693;49.266;7.104;2023-04-28T10:42:57;16.50;99.90
15184;DHT22;7693;49.266;7.104;2023-04-28T10:48:14;16.40;99.90
15184;DHT22;7693;49.266;7.104;2023-04-28T10:58:40;16.40;99.90
15184;DHT22;7693;49.266;7.104;2023-04-28T11:03:51;16.40;99.90
15184;DHT22;7693;49.266;7.104;2023-04-28T11:06:36;16.40;99.90
15184;DHT22;7693;49.266;7.104;2023-04-28T11:11:36;16.50;99.90
15184;DHT22;7693;49.266;7.104;2023-04-28T11:16:51;16.50;99.90
15184;DHT22;7693;49.266;7.104;2023-04-28T11:19:19;16.50;99.90
15184;DHT22;7693;49.266;7.104;2023-04-28T11:21:45;16.50;99.90
15184;DHT22;7693;49.266;7.104;2023-04-28T11:24:16;16.40;99.90
15184;DHT22;7693;49.266;7.104;2023-04-28T11:26:42;16.40;99.90
15184;DHT22;7693;49.266;7.104;2023-04-28T11:29:09;16.40;99.90
15184;DHT22;7693;49.266;7.104;2023-04-28T11:31:35;16.40;99.90
15184;DHT22;7693;49.266;7.104;2023-04-28T11:34:06;16.30;99.90
15184;DHT22;7693;49.266;7.104;2023-04-28T11:36:36;16.20;99.90
15184;DHT22;7693;49.266;7.104;2023-04-28T11:39:09;16.30;99.90
15184;DHT22;7693;49.266;7.104;2023-04-28T11:41:45;16.30;99.90
15184;DHT22;7693;49.266;7.104;2023-04-28T11:44:18;16.40;99.90
15184;DHT22;7693;49.266;7.104;2023-04-28T11:46:55;16.50;99.90
15184;DHT22;7693;49.266;7.104;2023-04-28T11:49:25;16.70;99.90
15184;DHT22;7693;49.266;7.104;2023-04-28T11:51:55;16.80;99.90
15184;DHT22;7693;49.266;7.104;2023-04-28T11:54:26;16.90;99.90
15184;DHT22;7693;49.266;7.104;2023-04-28T11:56:54;17.00;99.90
15184;DHT22;7693;49.266;7.104;2023-04-28T11:59:28;17.10;99.90
15184;DHT22;7693;49.266;7.104;2023-04-28T12:01:56;17.20;99.90
15184;DHT22;7693;49.266;7.104;2023-04-28T12:04:38;17.30;99.90
15184;DHT22;7693;49.266;7.104;2023-04-28T12:07:15;17.40;99.90
15184;DHT22;7693;49.266;7.104;2023-04-28T12:12:12;17.60;99.90
15184;DHT22;7693;49.266;7.104;2023-04-28T12:15:04;17.80;99.90
15184;DHT22;7693;49.266;7.104;2023-04-28T12:17:35;18.00;99.90
15184;DHT22;7693;49.266;7.104;2023-04-28T12:20:03;18.20;99.90
15184;DHT22;7693;49.266;7.104;2023-04-28T12:22:30;18.20;99.90
15184;DHT22;7693;49.266;7.104;2023-04-28T12:27:32;18.20;99.90
15184;DHT22;7693;49.266;7.104;2023-04-28T12:29:58;18.10;99.90
15184;DHT22;7693;49.266;7.104;2023-04-28T12:32:40;18.10;99.90
15184;DHT22;7693;49.266;7.104;2023-04-28T12:35:06;18.00;99.90
15184;DHT22;7693;49.266;7.104;2023-04-28T12:37:32;18.00;99.90
15184;DHT22;7693;49.266;7.104;2023-04-28T12:39:58;17.90;99.90
15184;DHT22;7693;49.266;7.104;2023-04-28T12:42:24;17.90;99.90
15184;DHT22;7693;49.266;7.104;2023-04-28T12:44:50;18.00;99.90
15184;DHT22;7693;49.266;7.104;2023-04-28T12:47:16;18.00;99.90
15184;DHT22;7693;49.266;7.104;2023-04-28T12:49:45;17.90;99.90
15184;DHT22;7693;49.266;7.104;2023-04-28T12:52:11;17.90;99.90
15184;DHT22;7693;49.266;7.104;2023-04-28T12:54:37;17.90;99.90
15184;DHT22;7693;49.266;7.104;2023-04-28T12:57:04;17.90;99.90
15184;DHT22;7693;49.266;7.104;2023-04-28T12:59:30;17.90;99.90
15184;DHT22;7693;49.266;7.104;2023-04-28T13:01:55;18.00;99.90
15184;DHT22;7693;49.266;7.104;2023-04-28T13:04:21;18.10;99.90
15184;DHT22;7693;49.266;7.104;2023-04-28T13:06:47;18.30;99.90
15184;DHT22;7693;49.266;7.104;2023-04-28T13:09:13;18.40;99.90
15184;DHT22;7693;49.266;7.104;2023-04-28T13:11:40;18.50;99.90
15184;DHT22;7693;49.266;7.104;2023-04-28T13:14:06;18.50;99.90
15184;DHT22;7693;49.266;7.104;2023-04-28T13:16:32;18.50;99.90
15184;DHT22;7693;49.266;7.104;2023-04-28T13:18:59;18.50;99.90
15184;DHT22;7693;49.266;7.104;2023-04-28T13:21:25;18.40;99.90
15184;DHT22;7693;49.266;7.104;2023-04-28T13:23:52;18.40;99.90
15184;DHT22;7693;49.266;7.104;2023-04-28T13:26:18;18.40;99.90
15184;DHT22;7693;49.266;7.104;2023-04-28T13:28:46;18.50;99.90
15184;DHT22;7693;49.266;7.104;2023-04-28T13:31:12;18.50;99.90
15184;DHT22;7693;49.266;7.104;2023-04-28T13:33:38;18.50;99.90
15184;DHT22;7693;49.266;7.104;2023-04-28T13:36:04;18.50;99.90
15184;DHT22;7693;49.266;7.104;2023-04-28T13:38:29;18.40;99.90
15184;DHT22;7693;49.266;7.104;2023-04-28T13:40:55;18.40;99.90
15184;DHT22;7693;49.266;7.104;2023-04-28T13:43:21;18.40;99.90
15184;DHT22;7693;49.266;7.104;2023-04-28T13:45:46;18.30;99.90
15184;DHT22;7693;49.266;7.104;2023-04-28T13:48:12;18.30;99.90
15184;DHT22;7693;49.266;7.104;2023-04-28T13:50:38;18.30;99.90
15184;DHT22;7693;49.266;7.104;2023-04-28T13:53:03;18.30;99.90
15184;DHT22;7693;49.266;7.104;2023-04-28T13:55:29;18.20;99.90
15184;DHT22;7693;49.266;7.104;2023-04-28T13:57:55;18.10;99.90
15184;DHT22;7693;49.266;7.104;2023-04-28T14:00:21;18.10;99.90
15184;DHT22;7693;49.266;7.104;2023-04-28T14:02:49;18.10;99.90
15184;DHT22;7693;49.266;7.104;2023-04-28T14:05:15;18.10;99.90
15184;DHT22;7693;49.266;7.104;2023-04-28T14:07:41;18.10;99.90
15184;DHT22;7693;49.266;7.104;2023-04-28T14:10:07;18.10;99.90
15184;DHT22;7693;49.266;7.104;2023-04-28T14:12:33;18.10;99.90
15184;DHT22;7693;49.266;7.104;2023-04-28T14:14:59;18.00;99.90
15184;DHT22;7693;49.266;7.104;2023-04-28T14:17:24;18.00;99.90
15184;DHT22;7693;49.266;7.104;2023-04-28T14:19:50;18.00;99.90
15184;DHT22;7693;49.266;7.104;2023-04-28T14:22:19;17.90;99.90
15184;DHT22;7693;49.266;7.104;2023-04-28T14:24:48;17.90;99.90
15184;DHT22;7693;49.266;7.104;2023-04-28T14:27:13;17.80;99.90
15184;DHT22;7693;49.266;7.104;2023-04-28T14:29:40;17.80;99.90
15184;DHT22;7693;49.266;7.104;2023-04-28T14:32:06;17.80;99.90
15184;DHT22;7693;49.266;7.104;2023-04-28T14:34:35;17.80;99.90
15184;DHT22;7693;49.266;7.104;2023-04-28T14:37:00;17.70;99.90
15184;DHT22;7693;49.266;7.104;2023-04-28T14:39:26;17.70;99.90
15184;DHT22;7693;49.266;7.104;2023-04-28T14:41:51;17.70;99.90
15184;DHT22;7693;49.266;7.104;2023-04-28T14:44:17;17.80;99.90
15184;DHT22;7693;49.266;7.104;2023-04-28T14:46:42;18.10;99.90
15184;DHT22;7693;49.266;7.104;2023-04-28T14:49:08;18.60;99.90
15184;DHT22;7693;49.266;7.104;2023-04-28T14:51:34;19.10;99.90
15184;DHT22;7693;49.266;7.104;2023-04-28T14:53:59;19.30;99.90
15184;DHT22;7693;49.266;7.104;2023-04-28T14:56:25;19.40;99.90
15184;DHT22;7693;49.266;7.104;2023-04-28T14:58:51;19.60;99.90
15184;DHT22;7693;49.266;7.104;2023-04-28T15:01:17;19.80;99.90
15184;DHT22;7693;49.266;7.104;2023-04-28T15:03:43;20.00;99.90
15184;DHT22;7693;49.266;7.104;2023-04-28T15:06:09;20.30;99.90
15184;DHT22;7693;49.266;7.104;2023-04-28T15:08:36;20.40;99.90
15184;DHT22;7693;49.266;7.104;2023-04-28T15:11:02;20.30;99.90
15184;DHT22;7693;49.266;7.104;2023-04-28T15:13:30;20.20;99.90
15184;DHT22;7693;49.266;7.104;2023-04-28T15:15:56;20.10;99.90
15184;DHT22;7693;49.266;7.104;2023-04-28T15:18:25;20.10;99.90
15184;DHT22;7693;49.266;7.104;2023-04-28T15:20:51;20.20;99.90
15184;DHT22;7693;49.266;7.104;2023-04-28T15:23:17;20.30;99.90
15184;DHT22;7693;49.266;7.104;2023-04-28T15:25:44;20.20;99.90
15184;DHT22;7693;49.266;7.104;2023-04-28T15:28:09;20.10;99.90
15184;DHT22;7693;49.266;7.104;2023-04-28T15:30:35;19.90;99.90
15184;DHT22;7693;49.266;7.104;2023-04-28T15:33:00;19.80;99.90
15184;DHT22;7693;49.266;7.104;2023-04-28T15:35:26;19.60;99.90
15184;DHT22;7693;49.266;7.104;2023-04-28T15:37:53;19.60;99.90
15184;DHT22;7693;49.266;7.104;2023-04-28T15:40:23;19.80;99.90
15184;DHT22;7693;49.266;7.104;2023-04-28T15:42:49;19.90;99.90
15184;DHT22;7693;49.266;7.104;2023-04-28T15:45:18;20.10;99.90
15184;DHT22;7693;49.266;7.104;2023-04-28T15:47:46;20.00;99.90
15184;DHT22;7693;49.266;7.104;2023-04-28T15:50:11;20.00;99.90
15184;DHT22;7693;49.266;7.104;2023-04-28T15:52:39;20.00;99.90
15184;DHT22;7693;49.266;7.104;2023-04-28T15:55:06;20.00;99.90
15184;DHT22;7693;49.266;7.104;2023-04-28T15:57:32;20.10;99.90
15184;DHT22;7693;49.266;7.104;2023-04-28T15:59:58;20.30;99.90
15184;DHT22;7693;49.266;7.104;2023-04-28T16:02:24;20.40;99.90
15184;DHT22;7693;49.266;7.104;2023-04-28T16:04:50;20.50;99.90
15184;DHT22;7693;49.266;7.104;2023-04-28T16:07:15;20.40;99.90
15184;DHT22;7693;49.266;7.104;2023-04-28T16:09:41;20.30;99.90
15184;DHT22;7693;49.266;7.104;2023-04-28T16:12:07;20.30;99.90
15184;DHT22;7693;49.266;7.104;2023-04-28T16:14:32;20.40;99.90
15184;DHT22;7693;49.266;7.104;2023-04-28T16:16:58;20.30;99.90